Time;durP1;ratioP1;P1;durP2;ratioP2;P2;SDS_P1;SDS_P2;PMS_P1;PMS_P2;Temp;Humidity;BMP_temperature;BMP_pressure;BME280_temperature;BME280_humidity;BME280_pressure;Samples;Min_cycle;Max_cycle;Signal;HPM_P1;HPM_P2
2022/11/09 00:00:59;;;;;;;2.67;1.27;;;15.80;74.10;;;;;;5032829;28;20503;-94
2022/11/09 00:03:25;;;;;;;1.77;0.90;;;15.80;74.10;;;;;;5016569;28;20056;-95
2022/11/09 00:05:55;;;;;;;2.45;1.02;;;15.80;74.00;;;;;;5016346;28;20029;-95
2022/11/09 00:08:20;;;;;;;0.70;0.70;;;15.80;74.00;;;;;;5019112;28;20438;-95
2022/11/09 00:10:46;;;;;;;1.10;0.63;;;15.80;74.00;;;;;;5019218;28;20116;-94
2022/11/09 00:13:12;;;;;;;1.17;0.82;;;15.80;74.10;;;;;;5035825;28;20506;-94
2022/11/09 00:15:37;;;;;;;1.58;0.75;;;15.80;74.10;;;;;;5018396;28;20088;-95
2022/11/09 00:18:04;;;;;;;1.80;1.20;;;15.80;74.10;;;;;;5019375;28;20040;-94
2022/11/09 00:20:30;;;;;;;8.50;1.08;;;15.80;74.70;;;;;;5019272;28;20021;-94
2022/11/09 00:22:56;;;;;;;1.25;0.70;;;15.80;74.00;;;;;;5035183;28;20026;-94
2022/11/09 00:25:22;;;;;;;1.25;0.82;;;15.80;74.00;;;;;;5035124;28;20025;-94
2022/11/09 00:27:47;;;;;;;0.98;0.77;;;15.80;74.10;;;;;;5018775;28;20049;-94
2022/11/09 00:30:13;;;;;;;1.48;0.80;;;15.80;74.10;;;;;;5035509;28;20025;-95
2022/11/09 00:32:39;;;;;;;2.85;0.80;;;15.80;74.10;;;;;;5018468;28;20025;-94
2022/11/09 00:35:05;;;;;;;0.45;0.45;;;15.70;74.10;;;;;;5014736;28;20025;-89
2022/11/09 00:37:31;;;;;;;0.60;0.60;;;15.70;74.10;;;;;;5027597;28;20038;-88
2022/11/09 00:39:57;;;;;;;1.65;0.80;;;15.80;74.10;;;;;;5016051;28;20021;-89
2022/11/09 00:42:23;;;;;;;2.00;1.38;;;15.80;74.10;;;;;;5014969;28;20029;-88
2022/11/09 00:44:48;;;;;;;1.85;0.95;;;15.80;74.10;;;;;;5034614;28;20021;-94
2022/11/09 00:47:14;;;;;;;2.05;0.70;;;15.80;74.10;;;;;;5018351;28;20476;-95
2022/11/09 00:49:40;;;;;;;0.70;0.70;;;15.80;74.10;;;;;;5018235;28;20399;-94
2022/11/09 00:52:05;;;;;;;2.25;0.80;;;15.80;74.00;;;;;;5018384;28;20040;-94
2022/11/09 00:54:31;;;;;;;1.02;0.82;;;15.80;73.90;;;;;;5034704;28;20025;-95
2022/11/09 00:56:57;;;;;;;2.17;1.00;;;15.80;73.90;;;;;;5018299;28;20022;-93
2022/11/09 00:59:23;;;;;;;0.57;0.52;;;15.80;73.80;;;;;;5018272;28;20025;-94
2022/11/09 01:01:48;;;;;;;3.55;0.70;;;15.80;74.40;;;;;;5018126;28;20029;-93
2022/11/09 01:04:14;;;;;;;1.33;0.73;;;15.80;73.70;;;;;;5018327;28;20032;-92
2022/11/09 01:06:40;;;;;;;0.75;0.75;;;15.80;73.70;;;;;;5017503;28;20060;-89
2022/11/09 01:09:05;;;;;;;0.77;0.77;;;15.80;73.70;;;;;;5037000;28;20087;-89
2022/11/09 01:11:31;;;;;;;0.95;0.63;;;15.80;73.70;;;;;;5004166;28;20029;-96
2022/11/09 01:13:59;;;;;;;1.77;1.20;;;15.80;73.80;;;;;;5037929;28;20040;-95
2022/11/09 01:16:25;;;;;;;1.83;0.68;;;15.80;73.80;;;;;;5054531;28;20106;-95
2022/11/09 01:18:55;;;;;;;3.35;0.85;;;15.80;73.80;;;;;;5005192;28;20033;-95
2022/11/09 01:21:21;;;;;;;0.95;0.70;;;15.80;73.90;;;;;;5054696;28;20029;-94
2022/11/09 01:23:47;;;;;;;1.23;0.85;;;15.80;73.80;;;;;;5037569;28;20029;-95
2022/11/09 01:26:14;;;;;;;1.40;0.57;;;15.80;73.90;;;;;;5054301;28;20570;-94
2022/11/09 01:28:40;;;;;;;1.60;1.00;;;15.80;73.90;;;;;;5021499;28;20021;-95
2022/11/09 01:31:13;;;;;;;4.00;1.17;;;15.80;74.10;;;;;;5054404;28;20021;-95
2022/11/09 01:33:39;;;;;;;3.22;0.90;;;15.80;74.40;;;;;;5054130;28;20037;-95
2022/11/09 01:36:08;;;;;;;0.52;0.47;;;15.70;74.70;;;;;;5054372;28;20029;-95
2022/11/09 01:38:36;;;;;;;1.23;0.77;;;15.70;75.10;;;;;;5054713;28;20037;-92
2022/11/09 01:41:03;;;;;;;1.80;0.95;;;15.60;75.30;;;;;;5037337;28;20017;-94
2022/11/09 01:43:29;;;;;;;2.00;0.90;;;15.60;75.40;;;;;;5054027;28;20036;-95
2022/11/09 01:46:04;;;;;;;0.50;0.47;;;15.60;75.40;;;;;;5037710;28;20025;-95
2022/11/09 01:48:37;;;;;;;0.93;0.60;;;15.60;75.40;;;;;;5054594;28;20025;-95
2022/11/09 01:51:23;;;;;;;0.50;0.47;;;15.60;75.40;;;;;;5055496;28;20384;-93
2022/11/09 01:53:53;;;;;;;1.35;0.75;;;15.60;75.50;;;;;;5055626;28;20040;-94
2022/11/09 01:56:19;;;;;;;2.78;0.80;;;15.50;75.50;;;;;;5056410;28;20029;-93
2022/11/09 01:59:11;;;;;;;3.28;0.90;;;15.50;75.60;;;;;;5022247;28;20475;-94
2022/11/09 02:01:37;;;;;;;1.30;0.63;;;15.50;75.80;;;;;;5036680;28;20037;-95
2022/11/09 02:04:34;;;;;;;1.95;0.90;;;15.50;76.10;;;;;;5021915;28;20803;-95
2022/11/09 02:07:00;;;;;;;0.60;0.60;;;15.50;76.30;;;;;;5023180;28;20058;-89
2022/11/09 02:09:32;;;;;;;1.17;0.93;;;15.40;76.40;;;;;;5018776;28;20120;-89
2022/11/09 02:11:58;;;;;;;1.08;0.63;;;15.40;76.30;;;;;;5030426;28;20045;-90
2022/11/09 02:14:27;;;;;;;0.93;0.77;;;15.50;76.40;;;;;;5030236;28;20095;-89
2022/11/09 02:16:53;;;;;;;2.78;0.68;;;15.50;76.60;;;;;;5028671;28;20045;-89
2022/11/09 02:19:19;;;;;;;1.48;0.63;;;15.50;76.60;;;;;;5029977;28;20026;-90
2022/11/09 02:21:44;;;;;;;0.80;0.80;;;15.50;76.60;;;;;;5012797;28;20044;-89
2022/11/09 02:24:11;;;;;;;1.42;0.70;;;15.50;76.60;;;;;;5013066;28;20037;-89
2022/11/09 02:26:42;;;;;;;1.27;0.75;;;15.40;76.70;;;;;;5029758;28;20053;-89
2022/11/09 02:29:10;;;;;;;0.40;0.40;;;15.40;76.90;;;;;;5026446;28;20030;-88
2022/11/09 02:31:41;;;;;;;0.50;0.45;;;15.40;77.50;;;;;;5029936;28;20064;-89
2022/11/09 02:34:12;;;;;;;0.70;0.60;;;15.40;77.10;;;;;;5029555;28;20496;-89
2022/11/09 02:36:37;;;;;;;1.38;0.60;;;15.40;77.10;;;;;;5030732;28;20079;-89
2022/11/09 02:39:04;;;;;;;2.28;1.00;;;15.40;77.20;;;;;;4982443;28;20037;-90
2022/11/09 02:41:33;;;;;;;4.97;0.70;;;15.40;77.30;;;;;;5016473;28;20515;-89
2022/11/09 02:44:00;;;;;;;1.45;0.65;;;15.40;77.40;;;;;;5034564;28;20112;-93
2022/11/09 02:46:32;;;;;;;2.08;0.70;;;15.40;77.40;;;;;;5037662;28;20025;-92
2022/11/09 02:48:58;;;;;;;0.70;0.70;;;15.40;77.40;;;;;;5037025;28;20037;-94
2022/11/09 02:51:23;;;;;;;1.80;0.90;;;15.30;77.40;;;;;;5021070;28;20021;-94
2022/11/09 02:53:49;;;;;;;0.80;0.55;;;15.30;77.30;;;;;;5021005;28;20385;-95
2022/11/09 02:56:14;;;;;;;1.48;0.63;;;15.40;77.30;;;;;;5037421;28;20128;-93
2022/11/09 02:58:40;;;;;;;0.95;0.60;;;15.40;77.30;;;;;;5037669;28;20026;-93
2022/11/09 03:01:06;;;;;;;0.65;0.65;;;15.30;77.30;;;;;;5021042;28;20030;-92
2022/11/09 03:03:32;;;;;;;0.65;0.65;;;15.30;77.40;;;;;;5037451;28;20017;-93
2022/11/09 03:05:57;;;;;;;1.23;0.98;;;15.30;77.30;;;;;;5020967;28;20455;-95
2022/11/09 03:08:23;;;;;;;0.75;0.65;;;15.30;77.20;;;;;;5020426;28;20554;-94
2022/11/09 03:10:49;;;;;;;0.88;0.50;;;15.30;77.20;;;;;;5037329;28;20048;-95
2022/11/09 03:13:14;;;;;;;1.42;0.52;;;15.30;77.20;;;;;;5037435;28;20087;-93
2022/11/09 03:15:40;;;;;;;1.80;0.70;;;15.30;77.20;;;;;;5020734;28;20087;-93
2022/11/09 03:18:06;;;;;;;2.63;0.80;;;15.30;77.20;;;;;;5020762;28;20029;-94
2022/11/09 03:20:32;;;;;;;1.92;0.80;;;15.30;77.20;;;;;;5037907;28;20061;-94
2022/11/09 03:22:59;;;;;;;0.82;0.68;;;15.30;77.10;;;;;;5023280;28;20079;-93
2022/11/09 03:25:25;;;;;;;2.25;1.00;;;15.30;77.30;;;;;;5038513;28;20202;-94
2022/11/09 03:28:00;;;;;;;0.60;0.60;;;15.30;77.00;;;;;;5038564;28;20025;-94
2022/11/09 03:30:26;;;;;;;1.23;0.60;;;15.30;76.90;;;;;;5038078;28;20036;-94
2022/11/09 03:33:08;;;;;;;0.95;0.95;;;15.30;76.90;;;;;;5021933;28;20026;-94
2022/11/09 03:35:37;;;;;;;1.27;1.17;;;15.30;76.80;;;;;;5038153;28;20021;-94
2022/11/09 03:38:03;;;;;;;4.05;0.98;;;15.30;76.80;;;;;;5038413;28;20413;-94
2022/11/09 03:40:29;;;;;;;2.38;0.65;;;15.30;76.70;;;;;;5037886;28;20034;-95
2022/11/09 03:42:55;;;;;;;0.60;0.60;;;15.30;76.70;;;;;;5021718;28;20040;-93
2022/11/09 03:45:20;;;;;;;0.68;0.60;;;15.30;76.80;;;;;;5037714;28;20021;-93
2022/11/09 03:47:47;;;;;;;3.60;1.20;;;15.30;76.80;;;;;;5020634;28;20038;-95
2022/11/09 03:50:14;;;;;;;5.13;1.40;;;15.30;76.70;;;;;;5019434;28;20021;-94
2022/11/09 03:52:43;;;;;;;1.38;0.82;;;15.30;76.70;;;;;;5037021;28;20408;-94
2022/11/09 03:55:09;;;;;;;0.70;0.60;;;15.30;76.70;;;;;;5037624;28;20392;-93
2022/11/09 03:57:34;;;;;;;2.72;0.60;;;15.20;76.60;;;;;;5037221;28;20094;-94
2022/11/09 04:00:00;;;;;;;4.43;1.00;;;15.20;76.70;;;;;;5020379;28;20021;-95
2022/11/09 04:02:26;;;;;;;0.60;0.60;;;15.20;76.70;;;;;;5020067;28;20057;-93
2022/11/09 04:04:52;;;;;;;1.02;0.90;;;15.20;76.70;;;;;;5036265;28;20025;-95
2022/11/09 04:07:18;;;;;;;2.90;0.95;;;15.10;76.70;;;;;;5036844;28;20025;-93
2022/11/09 04:09:43;;;;;;;0.80;0.55;;;15.10;76.60;;;;;;5019831;28;20041;-93
2022/11/09 04:12:09;;;;;;;1.05;0.55;;;15.20;76.70;;;;;;5020178;28;20020;-94
2022/11/09 04:14:35;;;;;;;5.25;0.90;;;15.20;76.60;;;;;;5020080;28;20021;-95
2022/11/09 04:17:00;;;;;;;2.70;0.77;;;15.10;76.40;;;;;;5018688;28;20488;-94
2022/11/09 04:19:26;;;;;;;2.25;0.75;;;15.10;76.40;;;;;;5018975;28;20032;-94
2022/11/09 04:21:52;;;;;;;0.60;0.60;;;15.00;76.30;;;;;;5018716;28;20029;-92
2022/11/09 04:24:17;;;;;;;1.48;0.63;;;15.00;76.40;;;;;;5018473;28;20034;-93
2022/11/09 04:26:43;;;;;;;0.73;0.55;;;14.90;76.40;;;;;;5018345;28;20025;-93
2022/11/09 04:29:09;;;;;;;2.28;0.93;;;14.90;76.50;;;;;;5018499;28;20061;-93
2022/11/09 04:31:35;;;;;;;2.08;0.90;;;14.90;76.50;;;;;;5034783;28;20091;-94
2022/11/09 04:34:01;;;;;;;1.15;0.90;;;14.90;76.60;;;;;;5017974;28;20037;-93
2022/11/09 04:36:26;;;;;;;1.40;1.10;;;14.80;76.50;;;;;;5017953;28;20125;-92
2022/11/09 04:38:52;;;;;;;2.08;0.80;;;14.80;76.50;;;;;;5018057;28;20034;-93
2022/11/09 04:41:18;;;;;;;1.05;0.95;;;14.80;76.40;;;;;;5018237;28;20030;-93
2022/11/09 04:43:43;;;;;;;0.88;0.70;;;14.80;76.40;;;;;;5018353;28;20056;-94
2022/11/09 04:46:10;;;;;;;1.20;0.68;;;14.80;76.40;;;;;;5017942;28;20045;-94
2022/11/09 04:48:35;;;;;;;9.65;1.02;;;14.80;76.30;;;;;;5034583;28;20017;-93
2022/11/09 04:51:06;;;;;;;1.35;1.05;;;14.80;76.30;;;;;;5035102;28;20029;-93
2022/11/09 04:53:32;;;;;;;1.02;0.70;;;14.80;76.30;;;;;;5017636;28;20038;-94
2022/11/09 04:55:58;;;;;;;2.80;0.93;;;14.80;76.30;;;;;;5034367;28;20033;-92
2022/11/09 04:58:24;;;;;;;1.95;0.88;;;14.80;76.30;;;;;;5016813;28;20021;-89
2022/11/09 05:00:50;;;;;;;1.65;0.90;;;14.80;76.30;;;;;;5030087;28;20041;-89
2022/11/09 05:03:16;;;;;;;0.95;0.68;;;14.70;76.30;;;;;;5015003;28;20026;-94
2022/11/09 05:05:41;;;;;;;0.75;0.70;;;14.80;76.30;;;;;;5034047;28;20492;-94
2022/11/09 05:08:07;;;;;;;0.85;0.38;;;14.80;76.30;;;;;;5017215;28;20049;-94
2022/11/09 05:10:34;;;;;;;1.63;0.75;;;14.80;76.30;;;;;;5033638;28;20036;-94
2022/11/09 05:13:01;;;;;;;2.33;0.82;;;14.80;76.20;;;;;;5017742;28;20029;-95
2022/11/09 05:15:28;;;;;;;5.25;0.85;;;14.80;76.20;;;;;;5034045;28;20021;-93
2022/11/09 05:17:53;;;;;;;2.25;0.95;;;14.80;76.30;;;;;;5034037;28;20022;-93
2022/11/09 05:20:19;;;;;;;3.53;1.05;;;14.80;76.30;;;;;;5017391;28;20030;-93
2022/11/09 05:25:29;;;;;;;3.35;1.38;;;14.80;76.40;;;;;;5034961;28;20040;-93
2022/11/09 05:27:55;;;;;;;0.70;0.45;;;14.80;76.50;;;;;;5017474;28;20034;-92
2022/11/09 05:30:21;;;;;;;6.18;1.05;;;14.80;76.50;;;;;;5015808;28;20025;-89
2022/11/09 05:32:46;;;;;;;2.00;1.00;;;14.80;76.50;;;;;;5029305;28;20112;-89
2022/11/09 05:35:12;;;;;;;0.45;0.45;;;14.80;76.50;;;;;;5014668;28;20056;-88
2022/11/09 05:37:39;;;;;;;0.70;0.70;;;14.80;76.40;;;;;;5029925;28;20060;-89
2022/11/09 05:40:06;;;;;;;0.50;0.47;;;14.70;76.40;;;;;;5042566;28;20037;-89
2022/11/09 05:42:32;;;;;;;0.90;0.77;;;14.70;76.60;;;;;;5041067;28;20043;-89
2022/11/09 05:44:57;;;;;;;1.58;0.85;;;14.70;76.60;;;;;;5010102;28;20029;-89
2022/11/09 05:47:23;;;;;;;1.30;0.82;;;14.70;76.70;;;;;;5020636;28;20132;-88
2022/11/09 05:49:49;;;;;;;2.17;0.90;;;14.70;76.70;;;;;;5031110;28;20029;-89
2022/11/09 05:52:14;;;;;;;1.77;1.02;;;14.70;76.70;;;;;;4997994;28;20125;-89
2022/11/09 05:54:40;;;;;;;4.47;0.80;;;14.70;76.70;;;;;;5030348;28;20029;-89
2022/11/09 05:57:06;;;;;;;3.40;1.02;;;14.60;76.90;;;;;;5016002;28;20037;-89
2022/11/09 05:59:31;;;;;;;1.65;1.05;;;14.60;77.00;;;;;;5027295;28;20014;-89
2022/11/09 06:01:57;;;;;;;1.15;0.95;;;14.60;77.00;;;;;;5029901;28;20030;-89
2022/11/09 06:04:23;;;;;;;0.68;0.52;;;14.50;77.00;;;;;;5031177;28;20033;-88
2022/11/09 06:06:48;;;;;;;1.00;0.80;;;14.50;77.10;;;;;;5029550;28;20026;-89
2022/11/09 06:09:14;;;;;;;3.28;0.95;;;14.40;77.20;;;;;;4998124;28;20038;-94
2022/11/09 06:11:39;;;;;;;4.20;0.77;;;14.40;77.30;;;;;;5013978;28;20026;-93
2022/11/09 06:14:05;;;;;;;0.90;0.60;;;14.40;77.50;;;;;;5032888;28;20180;-93
2022/11/09 06:16:31;;;;;;;0.70;0.70;;;14.30;77.50;;;;;;5017662;28;20026;-91
2022/11/09 06:18:56;;;;;;;0.80;0.73;;;14.30;77.50;;;;;;5034377;28;20041;-92
2022/11/09 06:21:22;;;;;;;0.65;0.50;;;14.40;77.50;;;;;;5018056;28;20029;-93
2022/11/09 06:23:48;;;;;;;1.98;1.00;;;14.30;77.50;;;;;;5017771;28;20081;-93
2022/11/09 06:26:13;;;;;;;2.40;1.00;;;14.30;77.50;;;;;;5034513;28;20034;-93
2022/11/09 06:28:40;;;;;;;0.80;0.47;;;14.30;77.60;;;;;;5017444;28;20443;-92
2022/11/09 06:31:10;;;;;;;2.58;0.70;;;14.30;77.70;;;;;;5033804;28;20014;-93
2022/11/09 06:33:36;;;;;;;2.28;1.00;;;14.30;77.70;;;;;;5033613;28;20181;-91
2022/11/09 06:36:02;;;;;;;2.75;1.50;;;14.20;77.70;;;;;;5033779;28;20129;-93
2022/11/09 06:38:28;;;;;;;3.90;1.10;;;14.20;77.80;;;;;;5017229;28;20041;-93
2022/11/09 06:40:55;;;;;;;3.22;0.90;;;14.20;77.90;;;;;;5017545;28;20034;-92
2022/11/09 06:43:22;;;;;;;2.90;0.90;;;14.20;77.90;;;;;;5033893;28;20037;-92
2022/11/09 06:45:47;;;;;;;4.85;0.70;;;14.20;77.90;;;;;;5030354;28;20026;-88
2022/11/09 06:48:13;;;;;;;5.78;0.73;;;14.10;77.90;;;;;;5013778;28;20064;-88
2022/11/09 06:50:39;;;;;;;1.70;0.88;;;14.10;78.00;;;;;;5029815;28;20034;-88
2022/11/09 06:53:07;;;;;;;1.85;0.93;;;14.10;78.00;;;;;;5041980;28;20041;-88
2022/11/09 06:55:34;;;;;;;2.83;1.33;;;14.10;78.00;;;;;;5039385;28;20033;-88
2022/11/09 06:58:05;;;;;;;5.85;1.48;;;14.10;78.20;;;;;;5050168;28;20128;-93
2022/11/09 07:00:31;;;;;;;1.48;1.15;;;14.10;78.30;;;;;;5054104;28;20018;-93
2022/11/09 07:02:56;;;;;;;1.60;0.90;;;14.10;79.10;;;;;;5054037;28;20033;-93
2022/11/09 07:05:22;;;;;;;1.95;0.85;;;14.00;78.60;;;;;;5036440;28;20022;-91
2022/11/09 07:07:50;;;;;;;2.13;0.70;;;14.00;78.60;;;;;;5053894;28;20021;-92
2022/11/09 07:10:16;;;;;;;1.35;1.00;;;14.10;78.60;;;;;;5052536;28;20052;-93
2022/11/09 07:12:42;;;;;;;0.95;0.80;;;14.00;78.60;;;;;;5052915;28;20029;-93
2022/11/09 07:15:08;;;;;;;2.50;0.93;;;14.10;79.20;;;;;;5021594;28;20029;-88
2022/11/09 07:17:35;;;;;;;2.35;0.98;;;14.10;78.60;;;;;;5009628;28;20064;-85
2022/11/09 07:20:06;;;;;;;2.10;0.98;;;14.10;78.60;;;;;;5007796;28;20432;-86
2022/11/09 07:22:38;;;;;;;1.00;0.80;;;14.10;78.50;;;;;;5009540;28;20492;-86
2022/11/09 07:25:09;;;;;;;4.53;0.82;;;14.10;78.50;;;;;;5011014;28;20045;-88
2022/11/09 07:27:35;;;;;;;3.50;1.05;;;14.10;78.50;;;;;;5017521;28;20129;-93
2022/11/09 07:30:03;;;;;;;3.17;1.00;;;14.00;78.50;;;;;;5018506;28;20022;-92
2022/11/09 07:32:32;;;;;;;0.95;0.88;;;14.00;78.70;;;;;;5036195;28;20061;-94
2022/11/09 07:34:58;;;;;;;2.05;1.20;;;14.10;78.70;;;;;;5018125;28;20396;-96
2022/11/09 07:37:24;;;;;;;2.65;1.08;;;14.10;78.70;;;;;;5034065;28;20124;-94
2022/11/09 07:39:50;;;;;;;5.60;0.75;;;14.00;78.70;;;;;;5034859;28;20026;-94
2022/11/09 07:42:15;;;;;;;1.50;1.00;;;14.10;78.70;;;;;;5033130;28;20030;-94
2022/11/09 07:44:44;;;;;;;1.83;0.75;;;14.10;78.70;;;;;;5033164;28;20057;-95
2022/11/09 07:47:11;;;;;;;0.70;0.70;;;14.10;78.70;;;;;;5033228;28;20153;-93
2022/11/09 07:49:36;;;;;;;0.60;0.52;;;14.10;78.70;;;;;;5015305;28;20018;-89
2022/11/09 07:52:02;;;;;;;2.42;0.80;;;14.10;78.80;;;;;;5014053;28;20107;-88
2022/11/09 07:54:28;;;;;;;1.23;0.73;;;14.10;78.70;;;;;;4994801;28;20041;-87
2022/11/09 07:56:53;;;;;;;3.85;1.38;;;14.20;78.70;;;;;;5008664;28;20025;-88
2022/11/09 07:59:19;;;;;;;1.83;1.10;;;14.20;78.60;;;;;;5011475;28;20430;-88
2022/11/09 08:01:45;;;;;;;2.03;1.15;;;14.20;79.20;;;;;;5016213;28;20091;-89
2022/11/09 08:04:11;;;;;;;3.75;0.90;;;14.20;78.60;;;;;;5029138;28;20034;-88
2022/11/09 08:06:36;;;;;;;3.22;1.10;;;14.20;78.60;;;;;;5025528;28;20496;-93
2022/11/09 08:09:02;;;;;;;2.08;1.05;;;14.20;78.70;;;;;;5002156;28;20494;-93
2022/11/09 08:11:28;;;;;;;1.92;1.55;;;14.20;78.70;;;;;;4996278;28;20113;-93
2022/11/09 08:13:55;;;;;;;1.65;1.15;;;14.30;78.80;;;;;;5017740;28;20526;-88
2022/11/09 08:16:21;;;;;;;2.42;1.05;;;14.20;78.70;;;;;;5030823;28;20037;-88
2022/11/09 08:18:49;;;;;;;1.77;0.80;;;14.30;78.80;;;;;;5013607;28;20033;-87
2022/11/09 08:21:14;;;;;;;1.55;0.70;;;14.30;78.70;;;;;;5029974;28;20458;-88
2022/11/09 08:23:40;;;;;;;2.00;0.93;;;14.40;78.60;;;;;;5021789;28;20100;-89
2022/11/09 08:26:06;;;;;;;3.55;0.98;;;14.40;78.50;;;;;;5023601;28;20038;-89
2022/11/09 08:28:33;;;;;;;3.03;1.40;;;14.50;79.00;;;;;;5017056;28;20540;-89
2022/11/09 08:31:03;;;;;;;3.28;1.38;;;14.50;78.40;;;;;;5031669;28;20116;-87
2022/11/09 08:33:39;;;;;;;1.55;0.82;;;14.50;78.30;;;;;;5028030;28;20148;-88
2022/11/09 08:36:12;;;;;;;2.10;1.08;;;14.50;78.20;;;;;;5028961;28;20080;-88
2022/11/09 08:38:39;;;;;;;2.75;0.98;;;14.50;78.10;;;;;;5041381;28;20025;-88
2022/11/09 08:41:05;;;;;;;2.85;1.15;;;14.60;78.20;;;;;;5032896;28;20041;-89
2022/11/09 08:43:30;;;;;;;3.05;1.20;;;14.70;77.90;;;;;;5014721;28;20034;-88
2022/11/09 08:45:56;;;;;;;3.35;1.67;;;14.70;77.70;;;;;;5014478;28;20018;-93
2022/11/09 08:48:22;;;;;;;1.35;0.98;;;14.80;77.40;;;;;;5015086;28;20034;-92
2022/11/09 08:50:55;;;;;;;2.40;0.90;;;14.90;77.20;;;;;;5014918;28;20500;-94
2022/11/09 08:53:22;;;;;;;1.30;1.20;;;14.90;76.80;;;;;;5031225;28;20093;-93
2022/11/09 08:55:47;;;;;;;3.97;0.90;;;15.00;76.70;;;;;;5031393;28;20092;-94
2022/11/09 08:58:13;;;;;;;3.78;1.17;;;15.10;76.40;;;;;;5012565;28;20034;-88
2022/11/09 09:00:39;;;;;;;3.55;1.08;;;15.10;76.10;;;;;;5027042;28;20026;-88
2022/11/09 09:03:05;;;;;;;2.95;0.90;;;15.20;76.10;;;;;;5024981;28;20036;-89
2022/11/09 09:05:33;;;;;;;1.48;0.82;;;15.30;75.80;;;;;;5026465;28;20377;-88
2022/11/09 09:07:59;;;;;;;7.13;1.63;;;15.40;75.40;;;;;;5035743;28;20029;-88
2022/11/09 09:10:25;;;;;;;1.83;1.10;;;15.40;74.90;;;;;;5029231;28;20572;-88
2022/11/09 09:12:52;;;;;;;0.82;0.68;;;15.30;74.90;;;;;;5030464;28;20041;-88
2022/11/09 09:15:17;;;;;;;4.43;1.10;;;15.30;74.80;;;;;;5010153;28;20057;-93
2022/11/09 09:17:43;;;;;;;2.65;0.63;;;15.30;74.90;;;;;;5014323;28;20543;-93
2022/11/09 09:20:10;;;;;;;1.92;0.82;;;15.30;74.90;;;;;;5014599;28;20084;-94
2022/11/09 09:22:39;;;;;;;7.70;1.35;;;15.40;74.50;;;;;;5014835;28;20034;-92
2022/11/09 09:25:05;;;;;;;1.73;0.80;;;15.30;74.20;;;;;;5019977;28;20496;-94
2022/11/09 09:27:31;;;;;;;2.80;1.20;;;15.30;74.50;;;;;;5031655;28;20026;-95
2022/11/09 09:29:56;;;;;;;2.85;1.45;;;15.30;74.30;;;;;;5014273;28;20379;-94
2022/11/09 09:32:22;;;;;;;2.30;1.05;;;15.30;73.80;;;;;;5017590;28;20021;-93
2022/11/09 09:34:48;;;;;;;7.82;1.08;;;15.30;74.00;;;;;;5017610;28;20017;-92
2022/11/09 09:37:16;;;;;;;1.50;0.90;;;15.50;73.70;;;;;;5016054;28;20143;-91
2022/11/09 09:39:42;;;;;;;4.30;1.17;;;15.60;73.30;;;;;;5033602;28;20021;-93
2022/11/09 09:42:16;;;;;;;1.17;1.08;;;15.70;72.90;;;;;;5017386;28;20043;-94
2022/11/09 09:44:55;;;;;;;2.60;1.27;;;15.70;72.50;;;;;;5027973;28;20025;-93
2022/11/09 09:47:35;;;;;;;4.95;1.08;;;15.80;72.30;;;;;;5020694;28;20035;-90
2022/11/09 09:50:10;;;;;;;1.13;0.80;;;15.80;72.60;;;;;;5044600;28;20112;-89
2022/11/09 09:52:44;;;;;;;1.35;1.15;;;15.80;72.30;;;;;;5035215;28;20025;-88
2022/11/09 09:55:29;;;;;;;1.15;0.88;;;15.90;72.20;;;;;;5043082;28;20108;-93
2022/11/09 09:58:08;;;;;;;14.55;1.08;;;15.90;71.80;;;;;;5038594;28;20052;-93
2022/11/09 10:00:35;;;;;;;2.85;1.10;;;15.90;71.80;;;;;;5035533;28;20028;-86
2022/11/09 10:03:01;;;;;;;3.30;1.58;;;15.80;71.90;;;;;;5036966;28;20041;-88
2022/11/09 10:06:05;;;;;;;0.75;0.73;;;15.90;72.20;;;;;;5032004;28;20763;-87
2022/11/09 10:08:38;;;;;;;5.72;1.35;;;16.00;71.70;;;;;;5026365;28;20425;-87
2022/11/09 10:11:15;;;;;;;0.85;0.70;;;16.10;71.10;;;;;;5015407;28;20065;-87
2022/11/09 10:14:14;;;;;;;4.03;1.58;;;16.20;71.00;;;;;;5021107;28;20053;-94
2022/11/09 10:17:03;;;;;;;1.80;1.17;;;16.20;70.60;;;;;;5020173;28;20056;-87
2022/11/09 10:19:50;;;;;;;1.65;0.70;;;16.20;70.50;;;;;;5025524;28;20300;-87
2022/11/09 10:22:25;;;;;;;1.45;0.60;;;16.20;70.50;;;;;;5012649;28;20373;-87
2022/11/09 10:24:53;;;;;;;1.30;0.77;;;16.20;70.70;;;;;;5037929;28;20108;-94
2022/11/09 10:27:29;;;;;;;9.15;1.55;;;16.40;70.10;;;;;;5020882;28;20026;-94
2022/11/09 10:29:57;;;;;;;2.50;1.08;;;16.40;70.10;;;;;;5037768;28;20026;-96
2022/11/09 10:32:23;;;;;;;1.20;0.70;;;16.70;69.80;;;;;;5020627;28;20029;-93
2022/11/09 10:34:52;;;;;;;2.30;0.93;;;16.70;69.10;;;;;;5037217;28;20014;-93
2022/11/09 10:37:31;;;;;;;0.52;0.52;;;16.80;68.80;;;;;;5021052;28;20049;-95
2022/11/09 10:40:03;;;;;;;7.30;1.20;;;16.90;68.40;;;;;;5037180;28;20030;-94
2022/11/09 10:42:29;;;;;;;1.85;0.77;;;16.80;68.50;;;;;;5036806;28;20503;-94
2022/11/09 10:44:56;;;;;;;6.88;0.88;;;17.00;68.40;;;;;;5036984;28;20017;-95
2022/11/09 10:47:22;;;;;;;3.35;0.95;;;17.10;68.10;;;;;;5036548;28;20025;-95
2022/11/09 10:50:13;;;;;;;2.40;1.50;;;17.20;67.50;;;;;;5021020;28;20021;-93
2022/11/09 10:52:38;;;;;;;9.15;0.98;;;17.30;67.60;;;;;;5019503;28;20037;-94
2022/11/09 10:55:22;;;;;;;2.33;0.70;;;17.70;67.60;;;;;;5021161;28;20048;-95
2022/11/09 10:58:01;;;;;;;4.03;1.52;;;17.90;65.70;;;;;;5037853;28;20039;-95
2022/11/09 11:00:27;;;;;;;3.70;1.25;;;17.80;65.40;;;;;;5037804;28;20029;-96
2022/11/09 11:02:54;;;;;;;1.92;0.95;;;17.40;65.20;;;;;;5038144;28;20033;-95
2022/11/09 11:05:26;;;;;;;1.55;0.40;;;17.10;65.90;;;;;;5037679;28;20022;-93
2022/11/09 11:07:52;;;;;;;;;;;16.90;66.70;;;;;;5042195;28;20028;-94
2022/11/09 11:10:20;;;;;;;1.55;1.00;;;16.70;66.70;;;;;;5033366;28;20388;-95
2022/11/09 11:13:11;;;;;;;1.42;0.70;;;16.70;67.50;;;;;;5033703;28;20065;-94
2022/11/09 11:15:40;;;;;;;1.75;0.80;;;17.10;66.30;;;;;;5034361;28;20026;-94
2022/11/09 11:18:22;;;;;;;2.83;0.60;;;17.00;66.20;;;;;;5034388;28;20030;-95
2022/11/09 11:21:03;;;;;;;4.43;1.52;;;16.80;66.60;;;;;;5034261;28;20543;-95
2022/11/09 11:23:29;;;;;;;1.95;0.50;;;16.60;67.20;;;;;;5003221;28;20038;-96
2022/11/09 11:25:54;;;;;;;0.70;0.60;;;16.50;67.60;;;;;;5017425;28;20041;-95
2022/11/09 11:28:38;;;;;;;1.60;0.80;;;16.30;68.60;;;;;;5033301;28;20026;-95
2022/11/09 11:31:11;;;;;;;2.40;1.08;;;16.30;68.10;;;;;;5033322;28;20021;-94
2022/11/09 11:33:37;;;;;;;5.85;0.88;;;16.30;68.40;;;;;;5033665;28;20056;-95
2022/11/09 11:36:21;;;;;;;10.20;1.23;;;16.20;68.50;;;;;;4984278;28;20033;-95
2022/11/09 11:39:09;;;;;;;4.05;1.05;;;16.20;68.30;;;;;;5033134;28;20538;-96
2022/11/09 11:41:50;;;;;;;1.13;1.00;;;16.10;68.20;;;;;;5033116;28;20080;-96
2022/11/09 11:44:37;;;;;;;0.68;0.60;;;16.20;68.40;;;;;;5033238;28;20034;-94
2022/11/09 11:47:35;;;;;;;1.85;0.70;;;16.70;67.30;;;;;;5033336;28;20128;-94
2022/11/09 11:50:22;;;;;;;1.02;0.93;;;16.80;66.60;;;;;;5015845;28;20034;-95
2022/11/09 11:53:00;;;;;;;1.48;0.77;;;16.70;66.60;;;;;;5033302;28;20033;-95
2022/11/09 11:55:44;;;;;;;1.67;0.82;;;16.60;66.90;;;;;;5032956;28;20041;-95
2022/11/09 11:58:22;;;;;;;1.50;0.77;;;16.70;66.90;;;;;;5032750;28;20088;-94
2022/11/09 12:01:14;;;;;;;1.50;1.10;;;16.70;66.70;;;;;;5033614;28;20033;-96
2022/11/09 12:03:48;;;;;;;2.90;1.00;;;16.70;66.60;;;;;;5033948;28;20049;-94
2022/11/09 12:06:20;;;;;;;0.75;0.55;;;16.90;66.30;;;;;;5032923;28;20100;-94
2022/11/09 12:09:06;;;;;;;2.63;1.02;;;16.90;65.70;;;;;;5033821;28;20464;-95
2022/11/09 12:11:44;;;;;;;0.55;0.55;;;16.80;65.90;;;;;;5034148;28;20029;-95
2022/11/09 12:14:21;;;;;;;5.25;0.60;;;16.60;66.30;;;;;;5036104;28;20034;-95
2022/11/09 12:16:50;;;;;;;0.60;0.60;;;16.50;66.60;;;;;;5039148;28;20061;-95
2022/11/09 12:19:34;;;;;;;1.63;0.90;;;16.50;66.70;;;;;;5049602;28;20125;-95
2022/11/09 12:22:05;;;;;;;3.10;0.70;;;16.60;65.90;;;;;;5047924;28;20026;-95
2022/11/09 12:24:48;;;;;;;1.88;1.25;;;16.90;65.20;;;;;;5048218;28;20057;-94
2022/11/09 12:27:21;;;;;;;1.40;0.82;;;17.10;64.70;;;;;;5047552;28;20041;-96
2022/11/09 12:30:19;;;;;;;3.03;1.08;;;17.50;63.90;;;;;;5049467;28;20052;-95
2022/11/09 12:33:02;;;;;;;1.35;0.82;;;18.40;62.20;;;;;;5048562;28;20026;-93
2022/11/09 12:35:46;;;;;;;5.40;0.90;;;18.70;60.60;;;;;;5047016;28;20030;-96
2022/11/09 12:38:17;;;;;;;1.40;0.93;;;18.70;60.20;;;;;;5047751;28;20018;-94
2022/11/09 12:40:47;;;;;;;2.83;0.70;;;19.00;60.00;;;;;;5049069;28;20117;-94
2022/11/09 12:43:35;;;;;;;0.80;0.77;;;19.20;59.50;;;;;;5047611;28;20036;-96
2022/11/09 12:46:03;;;;;;;4.28;1.13;;;19.10;58.80;;;;;;5047561;28;20026;-94
2022/11/09 12:48:36;;;;;;;2.65;0.40;;;18.60;59.40;;;;;;5033792;28;20030;-92
2022/11/09 12:51:04;;;;;;;2.58;0.93;;;18.10;60.40;;;;;;4991825;28;20033;-93
2022/11/09 12:53:34;;;;;;;1.67;0.82;;;17.70;61.80;;;;;;5024230;28;20030;-93
2022/11/09 12:56:18;;;;;;;1.85;0.70;;;17.30;62.60;;;;;;5024562;28;20061;-93
2022/11/09 12:58:44;;;;;;;3.17;1.55;;;17.10;63.30;;;;;;5024320;28;20030;-96
2022/11/09 13:01:26;;;;;;;1.00;0.50;;;16.90;63.90;;;;;;4995837;28;20102;-95